This is the latest recevied weather packets stored in our database for station/object M0XDC. If no packets are shown the sender has not sent any weather packets the latest 10 day(s).
| Time | Temp. | Humidity | Pressure | Rain* | Wind** | Luminosity | Snow |
|---|---|---|---|---|---|---|---|
| 1787602723 | 16.11° C | 71% | 1013.9 hPa | 0 mm | - | - | - |
| 1787600923 | 16.67° C | 68% | 1013.9 hPa | 0 mm | - | - | - |
| 1787599123 | 16.67° C | 65% | 1014 hPa | 0 mm | - | - | - |
| 1787597323 | 17.22° C | 63% | 1014 hPa | 0 mm | - | - | - |
| 1787595523 | 17.78° C | 60% | 1013.9 hPa | 0 mm | - | - | - |
| 1787593723 | 18.33° C | 59% | 1014.6 hPa | 0 mm | - | - | - |
| 1787591923 | 18.89° C | 56% | 1014.8 hPa | 0 mm | - | - | - |
| 1787590123 | 19.44° C | 54% | 1015.3 hPa | 0 mm | - | - | - |
| 1787588323 | 19.44° C | 53% | 1015.3 hPa | 0 mm | - | - | - |
| 1787586523 | 20° C | 49% | 1015.8 hPa | 0 mm | - | - | - |
| 1787584723 | 20.56° C | 51% | 1015.9 hPa | 0 mm | - | - | - |
| 1787582923 | 20° C | 50% | 1016.1 hPa | 0 mm | - | - | - |
| 1787581123 | 21.11° C | 48% | 1016.6 hPa | 0 mm | - | - | - |
| 1787579323 | 20.56° C | 51% | 1017.1 hPa | 0 mm | - | - | - |
| 1787577523 | 21.11° C | 53% | 1017.2 hPa | 0 mm | - | - | - |
| 1787575723 | 20° C | 53% | 1017.3 hPa | 0 mm | - | - | - |
| 1787573923 | 21.11° C | 47% | 1017.5 hPa | 0 mm | - | - | - |
| 1787572123 | 20° C | 53% | 1017.9 hPa | 0 mm | - | - | - |
| 1787570323 | 20° C | 54% | 1018.1 hPa | 0 mm | - | - | - |
| 1787568523 | 20.56° C | 54% | 1018.5 hPa | 0 mm | - | - | - |
| 1787566723 | 19.44° C | 57% | 1018.6 hPa | 0 mm | - | - | - |
| 1787564923 | 19.44° C | 57% | 1019.1 hPa | 0 mm | - | - | - |
| 1787563123 | 18.33° C | 60% | 1019.2 hPa | 0 mm | - | - | - |
| 1787561323 | 18.33° C | 60% | 1019.3 hPa | 0 mm | - | - | - |
| 1787559523 | 17.78° C | 64% | 1019.2 hPa | 0 mm | - | - | - |
* Rain latest hour (hover to see other rain measurements)
** Current wind speed in m/s (hover to see current wind gust speed)